sensor_id;sensor_type;location;lat;lon;timestamp;pressure;altitude;pressure_sealevel;temperature;humidity
36630;BME280;36256;42.154;23.002;2023-05-11T00:02:22;97380.28;;;12.84;100.00
36630;BME280;36256;42.154;23.002;2023-05-11T00:04:49;97383.56;;;12.83;100.00
36630;BME280;36256;42.154;23.002;2023-05-11T00:07:16;97388.88;;;12.81;100.00
36630;BME280;36256;42.154;23.002;2023-05-11T00:09:42;97379.84;;;12.86;100.00
36630;BME280;36256;42.154;23.002;2023-05-11T00:12:09;97383.88;;;12.85;100.00
36630;BME280;36256;42.154;23.002;2023-05-11T00:14:35;97394.22;;;12.88;100.00
36630;BME280;36256;42.154;23.002;2023-05-11T00:17:02;97392.97;;;12.98;100.00
36630;BME280;36256;42.154;23.002;2023-05-11T00:19:29;97385.78;;;12.97;100.00
36630;BME280;36256;42.154;23.002;2023-05-11T00:21:57;97386.72;;;12.94;100.00
36630;BME280;36256;42.154;23.002;2023-05-11T00:24:24;97379.50;;;12.93;100.00
36630;BME280;36256;42.154;23.002;2023-05-11T00:26:51;97386.09;;;12.99;100.00
36630;BME280;36256;42.154;23.002;2023-05-11T00:29:18;97387.50;;;12.94;100.00
36630;BME280;36256;42.154;23.002;2023-05-11T00:31:44;97384.53;;;12.98;100.00
36630;BME280;36256;42.154;23.002;2023-05-11T00:34:16;97376.09;;;12.98;100.00
36630;BME280;36256;42.154;23.002;2023-05-11T00:36:43;97382.34;;;13.02;100.00
36630;BME280;36256;42.154;23.002;2023-05-11T00:39:11;97378.59;;;12.96;100.00
36630;BME280;36256;42.154;23.002;2023-05-11T00:41:38;97379.97;;;12.91;100.00
36630;BME280;36256;42.154;23.002;2023-05-11T00:44:04;97383.13;;;12.93;100.00
36630;BME280;36256;42.154;23.002;2023-05-11T00:46:32;97376.88;;;12.98;100.00
36630;BME280;36256;42.154;23.002;2023-05-11T00:48:58;97382.34;;;13.02;100.00
36630;BME280;36256;42.154;23.002;2023-05-11T00:51:25;97380.94;;;12.97;100.00
36630;BME280;36256;42.154;23.002;2023-05-11T00:53:53;97380.31;;;12.93;100.00
36630;BME280;36256;42.154;23.002;2023-05-11T00:56:20;97383.59;;;12.92;100.00
36630;BME280;36256;42.154;23.002;2023-05-11T00:58:47;97389.38;;;12.88;100.00
36630;BME280;36256;42.154;23.002;2023-05-11T01:01:14;97372.94;;;12.78;100.00
36630;BME280;36256;42.154;23.002;2023-05-11T01:03:44;97378.56;;;12.87;100.00
36630;BME280;36256;42.154;23.002;2023-05-11T01:06:36;97352.25;;;12.72;100.00
36630;BME280;36256;42.154;23.002;2023-05-11T01:09:12;97385.78;;;12.88;100.00
36630;BME280;36256;42.154;23.002;2023-05-11T01:12:11;97371.06;;;12.84;100.00
36630;BME280;36256;42.154;23.002;2023-05-11T01:15:01;97370.75;;;12.91;100.00
36630;BME280;36256;42.154;23.002;2023-05-11T01:18:18;97382.81;;;12.91;100.00
36630;BME280;36256;42.154;23.002;2023-05-11T01:20:48;97380.75;;;12.83;100.00
36630;BME280;36256;42.154;23.002;2023-05-11T01:29:12;97377.31;;;12.79;100.00
36630;BME280;36256;42.154;23.002;2023-05-11T01:31:53;97372.94;;;12.78;100.00
36630;BME280;36256;42.154;23.002;2023-05-11T01:34:23;97369.19;;;12.81;100.00
36630;BME280;36256;42.154;23.002;2023-05-11T01:39:34;97378.41;;;12.81;100.00
36630;BME280;36256;42.154;23.002;2023-05-11T01:42:09;97382.34;;;12.84;100.00
36630;BME280;36256;42.154;23.002;2023-05-11T01:44:41;97373.72;;;12.87;100.00
36630;BME280;36256;42.154;23.002;2023-05-11T01:47:10;97377.94;;;12.83;100.00
36630;BME280;36256;42.154;23.002;2023-05-11T01:49:39;97373.56;;;12.82;100.00
36630;BME280;36256;42.154;23.002;2023-05-11T01:52:10;97370.75;;;12.82;100.00
36630;BME280;36256;42.154;23.002;2023-05-11T01:54:39;97373.56;;;12.82;100.00
36630;BME280;36256;42.154;23.002;2023-05-11T01:57:07;97370.44;;;12.80;100.00
36630;BME280;36256;42.154;23.002;2023-05-11T01:59:38;97371.38;;;12.77;100.00
36630;BME280;36256;42.154;23.002;2023-05-11T02:02:07;97375.41;;;12.76;100.00
36630;BME280;36256;42.154;23.002;2023-05-11T02:04:36;97362.25;;;12.63;100.00
36630;BME280;36256;42.154;23.002;2023-05-11T02:07:06;97352.72;;;12.52;100.00
36630;BME280;36256;42.154;23.002;2023-05-11T02:09:33;97373.53;;;12.63;100.00
36630;BME280;36256;42.154;23.002;2023-05-11T02:12:02;97364.16;;;12.67;100.00
36630;BME280;36256;42.154;23.002;2023-05-11T02:14:31;97373.53;;;12.63;100.00
36630;BME280;36256;42.154;23.002;2023-05-11T02:17:01;97375.38;;;12.57;100.00
36630;BME280;36256;42.154;23.002;2023-05-11T02:19:28;97368.97;;;12.57;100.00
36630;BME280;36256;42.154;23.002;2023-05-11T02:21:58;97373.84;;;12.56;100.00
36630;BME280;36256;42.154;23.002;2023-05-11T02:24:26;97367.75;;;12.58;100.00
36630;BME280;36256;42.154;23.002;2023-05-11T02:26:54;97376.19;;;12.58;100.00
36630;BME280;36256;42.154;23.002;2023-05-11T02:29:21;97369.75;;;12.57;100.00
36630;BME280;36256;42.154;23.002;2023-05-11T02:31:52;97368.22;;;12.56;100.00
36630;BME280;36256;42.154;23.002;2023-05-11T02:34:26;97361.31;;;12.57;100.00
36630;BME280;36256;42.154;23.002;2023-05-11T02:36:57;97365.56;;;12.62;100.00
36630;BME280;36256;42.154;23.002;2023-05-11T02:39:31;97361.63;;;12.59;100.00
36630;BME280;36256;42.154;23.002;2023-05-11T02:42:05;97363.34;;;12.57;100.00
36630;BME280;36256;42.154;23.002;2023-05-11T02:44:35;97364.41;;;12.50;100.00
36630;BME280;36256;42.154;23.002;2023-05-11T02:47:03;97354.22;;;12.44;100.00
36630;BME280;36256;42.154;23.002;2023-05-11T02:49:35;97362.88;;;12.49;100.00
36630;BME280;36256;42.154;23.002;2023-05-11T02:52:04;97355.47;;;12.34;100.00
36630;BME280;36256;42.154;23.002;2023-05-11T02:54:32;97363.78;;;12.46;100.00
36630;BME280;36256;42.154;23.002;2023-05-11T02:56:59;97367.88;;;12.45;100.00
36630;BME280;36256;42.154;23.002;2023-05-11T02:59:26;97368.19;;;12.47;100.00
36630;BME280;36256;42.154;23.002;2023-05-11T03:01:54;97363.47;;;12.44;100.00
36630;BME280;36256;42.154;23.002;2023-05-11T03:04:21;97366.28;;;12.44;100.00
36630;BME280;36256;42.154;23.002;2023-05-11T03:06:48;97363.03;;;12.46;100.00
36630;BME280;36256;42.154;23.002;2023-05-11T03:09:14;97368.19;;;12.47;100.00
36630;BME280;36256;42.154;23.002;2023-05-11T03:11:41;97364.41;;;12.50;100.00
36630;BME280;36256;42.154;23.002;2023-05-11T03:14:08;97365.03;;;12.54;100.00
36630;BME280;36256;42.154;23.002;2023-05-11T03:16:36;97365.69;;;12.49;100.00
36630;BME280;36256;42.154;23.002;2023-05-11T03:19:05;97359.41;;;12.45;100.00
36630;BME280;36256;42.154;23.002;2023-05-11T03:21:33;97366.16;;;12.48;100.00
36630;BME280;36256;42.154;23.002;2023-05-11T03:24:01;97370.03;;;12.50;100.00
36630;BME280;36256;42.154;23.002;2023-05-11T03:26:29;97368.22;;;12.56;100.00
36630;BME280;36256;42.154;23.002;2023-05-11T03:28:59;97368.66;;;12.55;100.00
36630;BME280;36256;42.154;23.002;2023-05-11T03:31:26;97367.50;;;12.34;100.00
36630;BME280;36256;42.154;23.002;2023-05-11T03:33:53;97373.63;;;12.42;100.00
36630;BME280;36256;42.154;23.002;2023-05-11T03:36:21;97370.53;;;12.49;100.00
36630;BME280;36256;42.154;23.002;2023-05-11T03:38:49;97377.41;;;12.48;100.00
36630;BME280;36256;42.154;23.002;2023-05-11T03:41:19;97375.34;;;12.48;100.00
36630;BME280;36256;42.154;23.002;2023-05-11T03:43:48;97383.81;;;12.48;100.00
36630;BME280;36256;42.154;23.002;2023-05-11T03:46:20;97373.97;;;12.53;100.00
36630;BME280;36256;42.154;23.002;2023-05-11T03:48:48;97372.25;;;12.55;100.00
36630;BME280;36256;42.154;23.002;2023-05-11T03:51:15;97374.28;;;12.55;100.00
36630;BME280;36256;42.154;23.002;2023-05-11T03:53:42;97371.47;;;12.55;100.00
36630;BME280;36256;42.154;23.002;2023-05-11T03:56:09;97368.97;;;12.57;100.00
36630;BME280;36256;42.154;23.002;2023-05-11T03:58:37;97367.41;;;12.56;100.00
36630;BME280;36256;42.154;23.002;2023-05-11T04:01:05;97374.75;;;12.53;100.00
36630;BME280;36256;42.154;23.002;2023-05-11T04:03:31;97371.16;;;12.53;100.00
36630;BME280;36256;42.154;23.002;2023-05-11T04:05:58;97376.00;;;12.52;100.00
36630;BME280;36256;42.154;23.002;2023-05-11T04:08:25;97380.06;;;12.51;100.00
36630;BME280;36256;42.154;23.002;2023-05-11T04:10:52;97377.88;;;12.55;100.00
36630;BME280;36256;42.154;23.002;2023-05-11T04:13:18;97371.31;;;12.49;100.00
36630;BME280;36256;42.154;23.002;2023-05-11T04:15:45;97381.63;;;12.52;100.00
36630;BME280;36256;42.154;23.002;2023-05-11T04:18:12;97375.88;;;12.56;100.00
36630;BME280;36256;42.154;23.002;2023-05-11T04:20:38;97381.03;;;12.57;100.00
36630;BME280;36256;42.154;23.002;2023-05-11T04:23:05;97388.53;;;12.60;100.00
36630;BME280;36256;42.154;23.002;2023-05-11T04:25:34;97379.03;;;12.67;100.00
36630;BME280;36256;42.154;23.002;2023-05-11T04:28:01;97391.06;;;12.77;100.00
36630;BME280;36256;42.154;23.002;2023-05-11T04:30:28;97389.69;;;12.81;100.00
36630;BME280;36256;42.154;23.002;2023-05-11T04:32:54;97396.09;;;12.91;100.00
36630;BME280;36256;42.154;23.002;2023-05-11T04:35:21;97388.91;;;12.90;98.04
36630;BME280;36256;42.154;23.002;2023-05-11T04:37:49;97402.38;;;13.04;97.89
36630;BME280;36256;42.154;23.002;2023-05-11T04:40:16;97411.44;;;12.99;95.59
36630;BME280;36256;42.154;23.002;2023-05-11T04:42:43;97406.91;;;13.01;94.79
36630;BME280;36256;42.154;23.002;2023-05-11T04:45:10;97408.84;;;13.04;97.80
36630;BME280;36256;42.154;23.002;2023-05-11T04:47:36;97412.75;;;13.07;95.85
36630;BME280;36256;42.154;23.002;2023-05-11T04:50:03;97417.00;;;13.11;94.47
36630;BME280;36256;42.154;23.002;2023-05-11T04:52:30;97420.88;;;13.05;94.20
36630;BME280;36256;42.154;23.002;2023-05-11T04:54:57;97432.16;;;13.05;95.63
36630;BME280;36256;42.154;23.002;2023-05-11T04:57:23;97423.34;;;13.03;95.62
36630;BME280;36256;42.154;23.002;2023-05-11T04:59:50;97435.41;;;12.94;95.13
36630;BME280;36256;42.154;23.002;2023-05-11T05:02:17;97435.72;;;12.96;94.80
36630;BME280;36256;42.154;23.002;2023-05-11T05:04:43;97428.66;;;12.92;93.57
36630;BME280;36256;42.154;23.002;2023-05-11T05:07:10;97432.25;;;12.92;91.51
36630;BME280;36256;42.154;23.002;2023-05-11T05:09:37;97439.28;;;12.88;93.30
36630;BME280;36256;42.154;23.002;2023-05-11T05:12:04;97433.50;;;12.91;94.30
36630;BME280;36256;42.154;23.002;2023-05-11T05:14:31;97436.63;;;12.93;94.12
36630;BME280;36256;42.154;23.002;2023-05-11T05:16:58;97447.09;;;12.93;91.55
36630;BME280;36256;42.154;23.002;2023-05-11T05:19:26;97452.13;;;12.98;93.76
36630;BME280;36256;42.154;23.002;2023-05-11T05:21:53;97445.22;;;12.99;91.87
36630;BME280;36256;42.154;23.002;2023-05-11T05:24:20;97438.94;;;12.77;89.12
36630;BME280;36256;42.154;23.002;2023-05-11T05:26:46;97448.00;;;12.72;91.89
36630;BME280;36256;42.154;23.002;2023-05-11T05:29:13;97451.44;;;12.76;94.44
36630;BME280;36256;42.154;23.002;2023-05-11T05:31:40;97450.78;;;12.63;93.73
36630;BME280;36256;42.154;23.002;2023-05-11T05:34:07;97445.81;;;12.67;93.97
36630;BME280;36256;42.154;23.002;2023-05-11T05:36:33;97446.13;;;12.69;94.47
36630;BME280;36256;42.154;23.002;2023-05-11T05:39:00;97452.88;;;12.80;95.53
36630;BME280;36256;42.154;23.002;2023-05-11T05:41:29;97454.25;;;12.76;93.69
36630;BME280;36256;42.154;23.002;2023-05-11T05:43:55;97450.25;;;12.86;94.25
36630;BME280;36256;42.154;23.002;2023-05-11T05:46:22;97439.25;;;12.79;92.57
36630;BME280;36256;42.154;23.002;2023-05-11T05:48:49;97456.81;;;12.92;93.72
36630;BME280;36256;42.154;23.002;2023-05-11T05:51:15;97460.59;;;12.98;93.86
36630;BME280;36256;42.154;23.002;2023-05-11T05:53:42;97459.31;;;12.90;94.03
36630;BME280;36256;42.154;23.002;2023-05-11T05:56:09;97457.75;;;12.89;93.23
36630;BME280;36256;42.154;23.002;2023-05-11T05:58:35;97464.94;;;12.90;93.19
36630;BME280;36256;42.154;23.002;2023-05-11T06:01:02;97467.28;;;12.91;92.85
36630;BME280;36256;42.154;23.002;2023-05-11T06:03:29;97461.69;;;13.00;92.49
36630;BME280;36256;42.154;23.002;2023-05-11T06:05:56;97468.31;;;13.06;88.99
36630;BME280;36256;42.154;23.002;2023-05-11T06:08:22;97453.91;;;13.04;88.53
36630;BME280;36256;42.154;23.002;2023-05-11T06:10:49;97443.53;;;13.01;86.91
36630;BME280;36256;42.154;23.002;2023-05-11T06:13:16;97466.06;;;13.01;88.15
36630;BME280;36256;42.154;23.002;2023-05-11T06:15:42;97467.78;;;12.99;89.29
36630;BME280;36256;42.154;23.002;2023-05-11T06:18:09;97464.94;;;12.99;90.74
36630;BME280;36256;42.154;23.002;2023-05-11T06:20:36;97477.69;;;13.12;91.30
36630;BME280;36256;42.154;23.002;2023-05-11T06:23:02;97473.41;;;12.99;90.22
36630;BME280;36256;42.154;23.002;2023-05-11T06:25:32;97469.31;;;12.91;89.54
36630;BME280;36256;42.154;23.002;2023-05-11T06:28:00;97476.69;;;12.97;91.80
36630;BME280;36256;42.154;23.002;2023-05-11T06:30:26;97474.34;;;12.96;90.53
36630;BME280;36256;42.154;23.002;2023-05-11T06:32:53;97471.53;;;12.96;91.04
36630;BME280;36256;42.154;23.002;2023-05-11T06:35:20;97478.78;;;13.06;90.04
36630;BME280;36256;42.154;23.002;2023-05-11T06:37:47;97469.19;;;12.94;89.80
36630;BME280;36256;42.154;23.002;2023-05-11T06:40:14;97469.72;;;13.11;92.13
36630;BME280;36256;42.154;23.002;2023-05-11T06:42:42;97453.06;;;12.95;89.50
36630;BME280;36256;42.154;23.002;2023-05-11T06:45:09;97461.88;;;13.06;89.08
36630;BME280;36256;42.154;23.002;2023-05-11T06:47:36;97467.56;;;13.24;89.54
36630;BME280;36256;42.154;23.002;2023-05-11T06:50:03;97440.59;;;13.14;90.75
36630;BME280;36256;42.154;23.002;2023-05-11T06:52:30;97470.22;;;13.27;88.29
36630;BME280;36256;42.154;23.002;2023-05-11T06:54:57;97468.50;;;13.30;91.43
36630;BME280;36256;42.154;23.002;2023-05-11T06:57:23;97471.94;;;13.34;93.28
36630;BME280;36256;42.154;23.002;2023-05-11T06:59:50;97468.81;;;13.32;89.70
36630;BME280;36256;42.154;23.002;2023-05-11T07:02:17;97467.06;;;13.16;88.79
36630;BME280;36256;42.154;23.002;2023-05-11T07:04:43;97473.78;;;13.10;89.28
36630;BME280;36256;42.154;23.002;2023-05-11T07:07:10;97475.97;;;13.06;89.27
36630;BME280;36256;42.154;23.002;2023-05-11T07:09:37;97477.22;;;13.05;90.64
36630;BME280;36256;42.154;23.002;2023-05-11T07:12:06;97482.88;;;13.05;90.84
36630;BME280;36256;42.154;23.002;2023-05-11T07:14:33;97478.19;;;13.20;91.53
36630;BME280;36256;42.154;23.002;2023-05-11T07:17:00;97474.44;;;13.32;89.20
36630;BME280;36256;42.154;23.002;2023-05-11T07:19:26;97476.00;;;13.33;90.63
36630;BME280;36256;42.154;23.002;2023-05-11T07:21:53;97481.63;;;13.33;91.75
36630;BME280;36256;42.154;23.002;2023-05-11T07:24:20;97483.84;;;13.38;91.62
36630;BME280;36256;42.154;23.002;2023-05-11T07:26:46;97483.88;;;13.47;92.23
36630;BME280;36256;42.154;23.002;2023-05-11T07:29:15;97482.91;;;13.50;91.82
36630;BME280;36256;42.154;23.002;2023-05-11T07:31:42;97473.19;;;13.42;90.00
36630;BME280;36256;42.154;23.002;2023-05-11T07:34:09;97480.25;;;13.65;90.88
36630;BME280;36256;42.154;23.002;2023-05-11T07:36:36;97482.59;;;13.75;91.99
36630;BME280;36256;42.154;23.002;2023-05-11T07:39:03;97482.59;;;13.84;92.16
36630;BME280;36256;42.154;23.002;2023-05-11T07:41:30;97481.50;;;13.91;90.64
36630;BME280;36256;42.154;23.002;2023-05-11T07:43:59;97478.69;;;14.00;92.22
36630;BME280;36256;42.154;23.002;2023-05-11T07:46:25;97488.22;;;14.02;89.92
36630;BME280;36256;42.154;23.002;2023-05-11T07:48:52;97487.56;;;14.16;91.24
36630;BME280;36256;42.154;23.002;2023-05-11T07:51:33;97476.56;;;14.28;89.27
36630;BME280;36256;42.154;23.002;2023-05-11T07:54:00;97472.03;;;14.30;84.78
36630;BME280;36256;42.154;23.002;2023-05-11T07:56:26;97470.63;;;14.35;84.06
36630;BME280;36256;42.154;23.002;2023-05-11T07:58:53;97475.94;;;14.42;85.57
36630;BME280;36256;42.154;23.002;2023-05-11T08:01:20;97478.75;;;14.51;83.70
36630;BME280;36256;42.154;23.002;2023-05-11T08:03:46;97471.28;;;14.30;83.33
36630;BME280;36256;42.154;23.002;2023-05-11T08:06:13;97473.59;;;14.40;84.63
36630;BME280;36256;42.154;23.002;2023-05-11T08:08:40;97481.19;;;14.58;84.53
36630;BME280;36256;42.154;23.002;2023-05-11T08:11:07;97484.03;;;14.58;82.61
36630;BME280;36256;42.154;23.002;2023-05-11T08:13:34;97480.63;;;14.45;83.68
36630;BME280;36256;42.154;23.002;2023-05-11T08:16:01;97481.59;;;14.42;85.10
36630;BME280;36256;42.154;23.002;2023-05-11T08:18:28;97483.72;;;14.56;85.14
36630;BME280;36256;42.154;23.002;2023-05-11T08:20:55;97490.28;;;14.62;83.59
36630;BME280;36256;42.154;23.002;2023-05-11T08:23:21;97478.09;;;14.47;84.62
36630;BME280;36256;42.154;23.002;2023-05-11T08:25:49;97485.44;;;14.62;85.88
36630;BME280;36256;42.154;23.002;2023-05-11T08:28:18;97488.34;;;14.77;85.25
36630;BME280;36256;42.154;23.002;2023-05-11T08:30:44;97478.66;;;14.69;83.12
36630;BME280;36256;42.154;23.002;2023-05-11T08:33:12;97480.56;;;14.63;82.94
36630;BME280;36256;42.154;23.002;2023-05-11T08:35:59;97484.53;;;14.47;81.78
36630;BME280;36256;42.154;23.002;2023-05-11T08:38:25;97478.88;;;14.56;82.99
36630;BME280;36256;42.154;23.002;2023-05-11T08:40:52;97483.78;;;14.79;82.40
36630;BME280;36256;42.154;23.002;2023-05-11T08:43:21;97481.19;;;14.67;81.82
36630;BME280;36256;42.154;23.002;2023-05-11T08:45:49;97472.41;;;14.65;81.47
36630;BME280;36256;42.154;23.002;2023-05-11T08:48:21;97461.00;;;14.83;83.58
36630;BME280;36256;42.154;23.002;2023-05-11T08:50:48;97469.97;;;15.14;86.12
36630;BME280;36256;42.154;23.002;2023-05-11T08:53:15;97471.69;;;15.12;81.19
36630;BME280;36256;42.154;23.002;2023-05-11T08:55:42;97463.97;;;15.12;80.22
36630;BME280;36256;42.154;23.002;2023-05-11T08:58:09;97453.69;;;15.00;79.91
36630;BME280;36256;42.154;23.002;2023-05-11T09:00:38;97446.59;;;15.05;79.35
36630;BME280;36256;42.154;23.002;2023-05-11T09:03:05;97445.22;;;15.24;82.19
36630;BME280;36256;42.154;23.002;2023-05-11T09:05:32;97445.72;;;15.46;79.54
36630;BME280;36256;42.154;23.002;2023-05-11T09:08:00;97445.88;;;15.42;78.88
36630;BME280;36256;42.154;23.002;2023-05-11T09:10:29;97444.31;;;15.41;79.32
36630;BME280;36256;42.154;23.002;2023-05-11T09:12:56;97438.31;;;15.48;76.76
36630;BME280;36256;42.154;23.002;2023-05-11T09:15:23;97438.53;;;15.59;77.93
36630;BME280;36256;42.154;23.002;2023-05-11T09:17:49;97442.00;;;15.93;80.51
36630;BME280;36256;42.154;23.002;2023-05-11T09:20:26;97433.13;;;16.29;83.07
36630;BME280;36256;42.154;23.002;2023-05-11T09:22:54;97436.06;;;16.49;81.19
36630;BME280;36256;42.154;23.002;2023-05-11T09:25:22;97419.84;;;16.64;74.02
36630;BME280;36256;42.154;23.002;2023-05-11T09:27:49;97422.38;;;16.62;72.42
36630;BME280;36256;42.154;23.002;2023-05-11T09:30:21;97434.06;;;16.84;77.65
36630;BME280;36256;42.154;23.002;2023-05-11T09:32:51;97425.00;;;17.00;77.39
36630;BME280;36256;42.154;23.002;2023-05-11T09:38:17;97415.75;;;16.85;71.21
36630;BME280;36256;42.154;23.002;2023-05-11T09:40:51;97405.50;;;16.88;71.50
36630;BME280;36256;42.154;23.002;2023-05-11T09:45:48;97418.94;;;17.07;73.82
36630;BME280;36256;42.154;23.002;2023-05-11T09:50:42;97399.31;;;17.04;67.94
36630;BME280;36256;42.154;23.002;2023-05-11T09:53:08;97398.63;;;16.94;69.47
36630;BME280;36256;42.154;23.002;2023-05-11T09:55:36;97388.72;;;16.84;68.52
36630;BME280;36256;42.154;23.002;2023-05-11T09:58:03;97393.81;;;16.80;68.91
36630;BME280;36256;42.154;23.002;2023-05-11T10:00:30;97388.47;;;16.68;70.77
36630;BME280;36256;42.154;23.002;2023-05-11T10:03:05;97396.56;;;16.75;71.29
36630;BME280;36256;42.154;23.002;2023-05-11T10:05:34;97383.25;;;16.81;69.60
36630;BME280;36256;42.154;23.002;2023-05-11T10:08:03;97392.19;;;16.94;75.23
36630;BME280;36256;42.154;23.002;2023-05-11T10:10:33;97389.16;;;16.97;68.88
36630;BME280;36256;42.154;23.002;2023-05-11T10:13:01;97387.47;;;17.05;73.10
36630;BME280;36256;42.154;23.002;2023-05-11T10:15:31;97380.22;;;17.04;72.80
36630;BME280;36256;42.154;23.002;2023-05-11T10:17:58;97399.53;;;17.20;69.14
36630;BME280;36256;42.154;23.002;2023-05-11T10:20:26;97385.94;;;16.90;67.83
36630;BME280;36256;42.154;23.002;2023-05-11T10:22:54;97383.59;;;16.68;66.95
36630;BME280;36256;42.154;23.002;2023-05-11T10:25:22;97379.94;;;16.82;71.16
36630;BME280;36256;42.154;23.002;2023-05-11T10:27:50;97381.91;;;16.76;67.42
36630;BME280;36256;42.154;23.002;2023-05-11T10:30:17;97380.97;;;16.50;68.49
36630;BME280;36256;42.154;23.002;2023-05-11T10:32:45;97373.59;;;16.23;69.56
36630;BME280;36256;42.154;23.002;2023-05-11T10:35:15;97381.00;;;16.21;69.58
36630;BME280;36256;42.154;23.002;2023-05-11T10:37:41;97372.50;;;16.21;72.51
36630;BME280;36256;42.154;23.002;2023-05-11T10:40:09;97380.97;;;16.50;75.40
36630;BME280;36256;42.154;23.002;2023-05-11T10:42:48;97371.25;;;16.71;71.14
36630;BME280;36256;42.154;23.002;2023-05-11T10:45:26;97366.50;;;16.63;69.74
36630;BME280;36256;42.154;23.002;2023-05-11T10:50:37;97372.97;;;16.83;69.01
36630;BME280;36256;42.154;23.002;2023-05-11T10:58:12;97372.00;;;17.06;70.20
36630;BME280;36256;42.154;23.002;2023-05-11T11:03:54;97371.16;;;17.20;76.63
36630;BME280;36256;42.154;23.002;2023-05-11T11:06:21;97368.25;;;17.55;71.37
36630;BME280;36256;42.154;23.002;2023-05-11T11:08:59;97361.03;;;17.80;69.79
36630;BME280;36256;42.154;23.002;2023-05-11T11:11:37;97349.00;;;17.65;65.30
36630;BME280;36256;42.154;23.002;2023-05-11T11:14:06;97352.00;;;17.56;67.61
36630;BME280;36256;42.154;23.002;2023-05-11T11:16:35;97359.47;;;17.79;70.86
36630;BME280;36256;42.154;23.002;2023-05-11T11:19:42;97357.78;;;18.18;77.25
36630;BME280;36256;42.154;23.002;2023-05-11T11:25:01;97337.41;;;17.94;64.37
36630;BME280;36256;42.154;23.002;2023-05-11T11:30:18;97345.53;;;17.55;65.25
36630;BME280;36256;42.154;23.002;2023-05-11T11:32:46;97348.56;;;17.72;69.06
36630;BME280;36256;42.154;23.002;2023-05-11T11:40:38;97337.59;;;17.85;63.36
36630;BME280;36256;42.154;23.002;2023-05-11T11:48:37;97326.03;;;17.63;63.78
36630;BME280;36256;42.154;23.002;2023-05-11T11:51:05;97324.47;;;17.62;66.19
36630;BME280;36256;42.154;23.002;2023-05-11T11:56:08;97322.97;;;17.66;64.29
36630;BME280;36256;42.154;23.002;2023-05-11T11:59:00;97329.00;;;17.74;70.18
36630;BME280;36256;42.154;23.002;2023-05-11T12:01:35;97323.88;;;17.78;64.39
36630;BME280;36256;42.154;23.002;2023-05-11T12:06:39;97312.13;;;17.65;62.70
36630;BME280;36256;42.154;23.002;2023-05-11T12:09:07;97312.00;;;17.54;63.99
36630;BME280;36256;42.154;23.002;2023-05-11T12:11:33;97313.84;;;17.57;66.87
36630;BME280;36256;42.154;23.002;2023-05-11T12:14:01;97304.28;;;17.54;64.79
36630;BME280;36256;42.154;23.002;2023-05-11T12:16:28;97314.13;;;17.39;61.73
36630;BME280;36256;42.154;23.002;2023-05-11T12:18:58;97307.63;;;17.33;62.76
36630;BME280;36256;42.154;23.002;2023-05-11T12:21:29;97307.91;;;17.35;62.20
36630;BME280;36256;42.154;23.002;2023-05-11T12:24:03;97314.63;;;17.37;62.48
36630;BME280;36256;42.154;23.002;2023-05-11T12:26:31;97310.03;;;17.40;64.50
36630;BME280;36256;42.154;23.002;2023-05-11T12:29:14;97301.72;;;17.36;62.34
36630;BME280;36256;42.154;23.002;2023-05-11T12:31:42;97299.53;;;17.25;62.73
36630;BME280;36256;42.154;23.002;2023-05-11T12:34:13;97285.22;;;17.35;60.93
36630;BME280;36256;42.154;23.002;2023-05-11T12:36:42;97289.44;;;17.45;63.59
36630;BME280;36256;42.154;23.002;2023-05-11T12:39:19;97277.09;;;17.48;60.27
36630;BME280;36256;42.154;23.002;2023-05-11T12:41:48;97272.56;;;17.56;60.74
36630;BME280;36256;42.154;23.002;2023-05-11T12:44:16;97276.50;;;17.64;62.39
36630;BME280;36256;42.154;23.002;2023-05-11T12:46:47;97290.91;;;17.86;68.33
36630;BME280;36256;42.154;23.002;2023-05-11T12:49:16;97273.66;;;17.64;61.64
36630;BME280;36256;42.154;23.002;2023-05-11T12:54:34;97279.72;;;17.77;64.13
36630;BME280;36256;42.154;23.002;2023-05-11T12:57:20;97282.22;;;17.95;68.64
36630;BME280;36256;42.154;23.002;2023-05-11T12:59:47;97282.28;;;18.06;61.16
36630;BME280;36256;42.154;23.002;2023-05-11T13:02:19;97255.28;;;17.85;61.02
36630;BME280;36256;42.154;23.002;2023-05-11T13:04:47;97261.47;;;17.83;62.17
36630;BME280;36256;42.154;23.002;2023-05-11T13:07:19;97260.41;;;17.81;60.51
36630;BME280;36256;42.154;23.002;2023-05-11T13:09:59;97259.00;;;17.65;59.80
36630;BME280;36256;42.154;23.002;2023-05-11T13:12:27;97267.47;;;17.40;59.52
36630;BME280;36256;42.154;23.002;2023-05-11T13:15:07;97269.25;;;17.37;64.14
36630;BME280;36256;42.154;23.002;2023-05-11T13:17:40;97276.00;;;17.40;61.19
36630;BME280;36256;42.154;23.002;2023-05-11T13:20:23;97259.53;;;17.44;67.56
36630;BME280;36256;42.154;23.002;2023-05-11T13:23:21;97265.88;;;17.33;61.77
36630;BME280;36256;42.154;23.002;2023-05-11T13:28:15;97252.81;;;17.67;70.28
36630;BME280;36256;42.154;23.002;2023-05-11T13:30:42;97263.59;;;17.94;62.09
36630;BME280;36256;42.154;23.002;2023-05-11T13:33:09;97251.66;;;17.84;61.27
36630;BME280;36256;42.154;23.002;2023-05-11T13:35:43;97265.19;;;17.95;65.25
36630;BME280;36256;42.154;23.002;2023-05-11T13:38:10;97262.34;;;17.95;60.87
36630;BME280;36256;42.154;23.002;2023-05-11T13:40:38;97270.63;;;17.98;59.70
36630;BME280;36256;42.154;23.002;2023-05-11T13:43:05;97262.66;;;18.02;64.14
36630;BME280;36256;42.154;23.002;2023-05-11T13:45:31;97271.47;;;18.10;58.93
36630;BME280;36256;42.154;23.002;2023-05-11T13:47:58;97269.66;;;18.07;60.08
36630;BME280;36256;42.154;23.002;2023-05-11T13:50:25;97255.38;;;17.96;59.77
36630;BME280;36256;42.154;23.002;2023-05-11T13:52:53;97266.56;;;17.74;57.57